createdAt,value
2019-05-02T00:00:13.843Z,100302.07
2019-05-02T00:02:45.118Z,100305.56
2019-05-02T00:05:19.329Z,100307.87
2019-05-02T00:07:53.890Z,100304.28
2019-05-02T00:10:26.067Z,100302.64
2019-05-02T00:12:57.977Z,100307.17
2019-05-02T00:15:33.187Z,100308.07
2019-05-02T00:18:04.593Z,100296.30
2019-05-02T00:20:35.841Z,100304.05
2019-05-02T00:23:09.243Z,100290.46
2019-05-02T00:25:47.246Z,100293.90
2019-05-02T00:28:19.809Z,100289.73
2019-05-02T00:30:50.970Z,100290.70
2019-05-02T00:33:22.483Z,100283.28
2019-05-02T00:35:53.959Z,100289.34
2019-05-02T00:38:27.933Z,100282.66
2019-05-02T00:41:02.170Z,100282.09
2019-05-02T00:43:34.581Z,100277.90
2019-05-02T00:46:06.445Z,100284.11
2019-05-02T00:48:44.189Z,100277.61
2019-05-02T00:51:15.655Z,100265.62
2019-05-02T00:53:48.434Z,100265.95
2019-05-02T00:56:21.892Z,100271.84
2019-05-02T00:58:56.617Z,100262.88
2019-05-02T01:01:48.437Z,100256.41
2019-05-02T01:04:28.831Z,100253.13
2019-05-02T01:07:00.454Z,100245.01
2019-05-02T01:09:32.540Z,100245.41
2019-05-02T01:12:08.411Z,100243.53
2019-05-02T01:14:37.786Z,100244.86
2019-05-02T01:17:09.422Z,100247.21
2019-05-02T01:19:42.429Z,100242.67
2019-05-02T01:22:16.008Z,100250.19
2019-05-02T01:24:46.672Z,100244.30
2019-05-02T01:27:53.022Z,100242.34
2019-05-02T01:30:43.894Z,100246.81
2019-05-02T01:33:52.421Z,100243.02
2019-05-02T01:36:30.233Z,100235.64
2019-05-02T01:39:02.845Z,100235.81
2019-05-02T01:41:36.002Z,100240.90
2019-05-02T01:44:09.719Z,100235.03
2019-05-02T01:46:41.867Z,100234.79
2019-05-02T01:49:16.835Z,100237.52
2019-05-02T01:51:51.546Z,100228.60
2019-05-02T01:54:22.779Z,100229.26
2019-05-02T01:56:54.339Z,100225.89
2019-05-02T01:59:29.081Z,100219.50
2019-05-02T02:02:00.753Z,100221.17
2019-05-02T02:04:31.940Z,100219.89
2019-05-02T02:07:03.667Z,100208.43
2019-05-02T02:09:38.798Z,100207.37
2019-05-02T02:12:11.463Z,100214.06
2019-05-02T02:14:48.039Z,100210.47
2019-05-02T02:17:17.417Z,100219.23
2019-05-02T02:19:53.392Z,100212.22
2019-05-02T02:22:42.351Z,100210.23
2019-05-02T02:25:52.071Z,100206.00
2019-05-02T02:28:23.124Z,100203.76
2019-05-02T02:30:57.842Z,100201.64
2019-05-02T02:33:27.675Z,100206.33
2019-05-02T02:36:00.138Z,100195.58
2019-05-02T02:38:33.789Z,100198.81
2019-05-02T02:41:12.513Z,100200.73
2019-05-02T02:43:41.941Z,100196.36
2019-05-02T02:46:37.709Z,100194.52
2019-05-02T02:49:06.365Z,100189.34
2019-05-02T02:51:37.902Z,100188.97
2019-05-02T02:54:08.978Z,100192.91
2019-05-02T02:56:40.956Z,100191.16
2019-05-02T02:59:19.329Z,100193.62
2019-05-02T03:01:47.459Z,100189.55
2019-05-02T03:04:20.170Z,100188.06
2019-05-02T03:06:51.947Z,100189.19
2019-05-02T03:09:26.494Z,100187.75
2019-05-02T03:12:13.759Z,100186.02
2019-05-02T03:14:50.662Z,100179.99
2019-05-02T03:17:49.295Z,100180.54
2019-05-02T03:20:20.523Z,100183.67
2019-05-02T03:22:51.952Z,100171.19
2019-05-02T03:25:27.027Z,100172.31
2019-05-02T03:27:57.120Z,100169.84
2019-05-02T03:30:36.036Z,100161.44
2019-05-02T03:33:10.279Z,100167.42
2019-05-02T03:35:42.784Z,100161.35
2019-05-02T03:38:08.246Z,100161.90
2019-05-02T03:40:41.369Z,100158.89
2019-05-02T03:43:18.935Z,100155.67
2019-05-02T03:45:46.474Z,100159.01
2019-05-02T03:48:25.856Z,100155.59
2019-05-02T03:50:51.456Z,100147.05
2019-05-02T03:53:25.376Z,100145.03
2019-05-02T03:55:56.639Z,100147.31
2019-05-02T03:58:28.798Z,100144.91
2019-05-02T04:01:03.357Z,100149.05
2019-05-02T04:03:40.881Z,100148.66
2019-05-02T04:06:14.072Z,100143.22
2019-05-02T04:08:43.571Z,100147.69
2019-05-02T04:11:26.552Z,100151.56
2019-05-02T04:13:59.712Z,100148.78
2019-05-02T04:16:31.910Z,100147.44
2019-05-02T04:19:05.446Z,100147.44
2019-05-02T04:21:41.496Z,100146.38
2019-05-02T04:24:15.880Z,100148.73
2019-05-02T04:26:56.080Z,100147.91
2019-05-02T04:29:24.437Z,100150.57
2019-05-02T04:31:54.885Z,100147.48
2019-05-02T04:34:26.006Z,100140.91
2019-05-02T04:37:01.272Z,100135.97
2019-05-02T04:39:31.170Z,100136.05
2019-05-02T04:42:12.929Z,100132.88
2019-05-02T04:45:26.346Z,100135.29
2019-05-02T04:47:58.991Z,100133.16
2019-05-02T04:50:29.454Z,100134.36
2019-05-02T04:53:00.276Z,100128.30
2019-05-02T04:55:33.461Z,100131.80
2019-05-02T04:58:08.154Z,100129.20
2019-05-02T05:00:44.970Z,100129.58
2019-05-02T05:03:15.478Z,100137.11
2019-05-02T05:05:48.221Z,100132.31
2019-05-02T05:08:26.187Z,100128.08
2019-05-02T05:10:53.718Z,100126.70
2019-05-02T05:13:26.459Z,100128.90
2019-05-02T05:16:02.896Z,100132.40
2019-05-02T05:18:33.616Z,100124.42
2019-05-02T05:21:04.667Z,100127.52
2019-05-02T05:23:59.510Z,100125.19
2019-05-02T05:26:28.110Z,100125.33
2019-05-02T05:29:00.391Z,100127.55
2019-05-02T05:31:31.537Z,100129.89
2019-05-02T05:34:02.993Z,100128.22
2019-05-02T05:36:37.466Z,100129.65
2019-05-02T05:39:11.655Z,100130.05
2019-05-02T05:41:42.650Z,100124.33
2019-05-02T05:44:18.236Z,100126.45
2019-05-02T05:46:49.626Z,100126.09
2019-05-02T05:49:21.887Z,100123.95
2019-05-02T05:51:54.313Z,100124.00
2019-05-02T05:54:28.303Z,100124.55
2019-05-02T05:57:01.819Z,100124.20
2019-05-02T05:59:33.330Z,100118.72
2019-05-02T06:02:05.615Z,100123.76
2019-05-02T06:04:38.873Z,100118.58
2019-05-02T06:07:10.112Z,100118.08
2019-05-02T06:09:41.569Z,100112.98
2019-05-02T06:12:12.713Z,100116.48
2019-05-02T06:14:46.424Z,100115.27
2019-05-02T06:17:23.016Z,100110.30
2019-05-02T06:19:53.595Z,100111.98
2019-05-02T06:22:25.688Z,100108.50
2019-05-02T06:24:58.392Z,100109.84
2019-05-02T06:27:30.495Z,100106.25
2019-05-02T06:30:01.798Z,100111.20
2019-05-02T06:32:33.658Z,100102.22
2019-05-02T06:35:04.994Z,100112.76
2019-05-02T06:37:40.473Z,100115.13
2019-05-02T06:40:13.044Z,100116.05
2019-05-02T06:42:46.099Z,100112.52
2019-05-02T06:45:19.062Z,100109.50
2019-05-02T06:47:50.776Z,100111.25
2019-05-02T06:50:24.969Z,100103.16
2019-05-02T06:52:58.083Z,100103.77
2019-05-02T06:55:36.279Z,100104.89
2019-05-02T06:58:08.229Z,100091.05
2019-05-02T07:00:55.902Z,100099.91
2019-05-02T07:03:12.603Z,100096.30
2019-05-02T07:05:43.947Z,100095.17
2019-05-02T07:08:15.139Z,100092.64
2019-05-02T07:10:48.094Z,100090.37
2019-05-02T07:13:19.142Z,100096.22
2019-05-02T07:16:00.655Z,100098.16
2019-05-02T07:18:35.761Z,100097.47
2019-05-02T07:21:07.450Z,100094.77
2019-05-02T07:23:39.698Z,100091.27
2019-05-02T07:26:15.530Z,100098.25
2019-05-02T07:28:47.187Z,100090.77
2019-05-02T07:31:18.257Z,100097.96
2019-05-02T07:33:51.240Z,100099.04
2019-05-02T07:36:22.821Z,100096.05
2019-05-02T07:38:57.587Z,100092.47
2019-05-02T07:41:28.952Z,100096.41
2019-05-02T07:44:00.640Z,100094.64
2019-05-02T07:46:32.196Z,100093.86
2019-05-02T07:49:03.340Z,100093.95
2019-05-02T07:51:34.454Z,100087.52
2019-05-02T07:54:07.479Z,100089.88
2019-05-02T07:56:38.545Z,100086.66
2019-05-02T07:59:11.206Z,100089.88
2019-05-02T08:01:44.832Z,100086.38
2019-05-02T08:04:15.446Z,100084.17
2019-05-02T08:06:46.690Z,100083.06
2019-05-02T08:09:17.821Z,100082.30
2019-05-02T08:11:49.242Z,100081.38
2019-05-02T08:14:22.319Z,100080.90
2019-05-02T08:17:05.516Z,100085.86
2019-05-02T08:19:28.986Z,100085.37
2019-05-02T08:22:04.735Z,100083.83
2019-05-02T08:24:37.914Z,100083.25
2019-05-02T08:27:34.661Z,100088.39
2019-05-02T08:30:09.351Z,100088.25
2019-05-02T08:32:40.804Z,100091.05
2019-05-02T08:35:12.575Z,100080.42
2019-05-02T08:37:43.790Z,100080.09
2019-05-02T08:40:15.145Z,100089.11
2019-05-02T08:42:47.704Z,100086.95
2019-05-02T08:45:20.612Z,100091.77
2019-05-02T08:47:51.781Z,100090.28
2019-05-02T08:50:27.187Z,100082.53
2019-05-02T08:52:56.668Z,100091.14
2019-05-02T08:55:30.042Z,100089.36
2019-05-02T08:58:06.095Z,100091.23
2019-05-02T09:00:37.621Z,100090.89
2019-05-02T09:05:45.341Z,100089.40
2019-05-02T09:08:16.718Z,100094.41
2019-05-02T09:10:47.759Z,100088.56
2019-05-02T09:13:26.485Z,100084.11
2019-05-02T09:15:54.158Z,100083.84
2019-05-02T09:18:35.017Z,100087.01
2019-05-02T09:21:02.067Z,100088.94
2019-05-02T09:23:37.198Z,100086.83
2019-05-02T09:26:09.058Z,100088.30
2019-05-02T09:28:42.074Z,100084.59
2019-05-02T09:31:15.208Z,100089.61
2019-05-02T09:33:48.187Z,100087.55
2019-05-02T09:36:19.842Z,100090.16
2019-05-02T09:38:55.904Z,100089.04
2019-05-02T09:41:27.033Z,100090.53
2019-05-02T09:43:56.905Z,100088.30
2019-05-02T09:46:29.855Z,100090.70
2019-05-02T09:49:04.319Z,100081.81
2019-05-02T09:51:35.525Z,100084.85
2019-05-02T09:54:06.990Z,100079.95
2019-05-02T09:56:39.595Z,100079.11
2019-05-02T09:59:26.836Z,100081.39
2019-05-02T10:01:48.204Z,100077.94
2019-05-02T10:04:19.448Z,100079.58
2019-05-02T10:06:52.542Z,100072.67
2019-05-02T10:09:27.081Z,100072.14
2019-05-02T10:11:58.021Z,100073.22
2019-05-02T10:14:30.297Z,100072.41
2019-05-02T10:17:06.998Z,100058.27
2019-05-02T10:19:35.349Z,100067.31
2019-05-02T10:22:06.994Z,100060.91
2019-05-02T10:24:38.463Z,100059.23
2019-05-02T10:27:09.811Z,100061.59
2019-05-02T10:29:42.484Z,100059.70
2019-05-02T10:32:16.644Z,100062.38
2019-05-02T10:34:53.101Z,100052.30
2019-05-02T10:37:22.330Z,100059.28
2019-05-02T10:39:55.818Z,100056.52
2019-05-02T10:42:27.534Z,100048.17
2019-05-02T10:45:24.061Z,100046.48
2019-05-02T10:47:55.216Z,100049.47
2019-05-02T10:50:36.084Z,100040.19
2019-05-02T10:53:14.313Z,100041.80
2019-05-02T10:55:42.092Z,100037.98
2019-05-02T10:58:13.778Z,100031.78
2019-05-02T11:00:45.576Z,100037.07
2019-05-02T11:03:38.137Z,100032.95
2019-05-02T11:06:10.182Z,100029.56
2019-05-02T11:08:45.712Z,100037.08
2019-05-02T11:11:14.020Z,100030.28
2019-05-02T11:14:07.076Z,100024.88
2019-05-02T11:16:59.074Z,100027.73
2019-05-02T11:19:56.641Z,100018.54
2019-05-02T11:22:27.749Z,100013.43
2019-05-02T11:24:59.260Z,100017.38
2019-05-02T11:27:32.860Z,100009.58
2019-05-02T11:30:06.135Z,100004.66
2019-05-02T11:32:39.122Z,100002.13
2019-05-02T11:35:12.318Z,99995.41
2019-05-02T11:37:43.465Z,99995.66
2019-05-02T11:40:15.421Z,99999.48
2019-05-02T11:42:47.956Z,100001.60
2019-05-02T11:45:19.105Z,99996.48
2019-05-02T11:47:50.305Z,99994.19
2019-05-02T11:50:26.614Z,99983.72
2019-05-02T11:52:57.745Z,99982.55
2019-05-02T11:55:29.187Z,99987.00
2019-05-02T11:58:07.895Z,99980.50
2019-05-02T12:00:34.945Z,99968.89
2019-05-02T12:03:28.121Z,99979.83
2019-05-02T12:06:01.994Z,99969.59
2019-05-02T12:08:33.662Z,99961.09
2019-05-02T12:11:08.432Z,99955.37
2019-05-02T12:13:38.973Z,99956.56
2019-05-02T12:16:12.600Z,99951.12
2019-05-02T12:18:44.086Z,99945.21
2019-05-02T12:21:15.763Z,99943.64
2019-05-02T12:23:46.971Z,99930.52
2019-05-02T12:26:18.162Z,99936.44
2019-05-02T12:28:52.476Z,99924.81
2019-05-02T12:31:32.449Z,99935.64
2019-05-02T12:34:07.547Z,99932.53
2019-05-02T12:36:42.735Z,99930.16
2019-05-02T12:39:15.708Z,99920.98
2019-05-02T12:41:47.191Z,99928.19
2019-05-02T12:44:18.753Z,99930.98
2019-05-02T12:46:51.918Z,99927.02
2019-05-02T12:49:27.722Z,99920.86
2019-05-02T12:51:55.988Z,99924.50
2019-05-02T12:54:27.164Z,99926.91
2019-05-02T12:56:58.925Z,99924.05
2019-05-02T12:59:32.092Z,99912.86
2019-05-02T13:02:05.729Z,99915.11
2019-05-02T13:04:36.806Z,99919.91
2019-05-02T13:07:10.192Z,99909.23
2019-05-02T13:09:42.040Z,99907.45
2019-05-02T13:12:17.785Z,99906.45
2019-05-02T13:14:49.136Z,99899.98
2019-05-02T13:17:22.522Z,99899.03
2019-05-02T13:19:57.042Z,99899.20
2019-05-02T13:22:52.635Z,99894.43
2019-05-02T13:25:27.245Z,99891.64
2019-05-02T13:28:01.948Z,99895.10
2019-05-02T13:30:46.475Z,99888.23
2019-05-02T13:33:27.232Z,99884.52
2019-05-02T13:35:59.712Z,99880.98
2019-05-02T13:38:32.904Z,99879.81
2019-05-02T13:41:07.120Z,99880.42
2019-05-02T13:43:45.436Z,99883.55
2019-05-02T13:46:22.186Z,99877.30
2019-05-02T13:48:54.894Z,99871.63
2019-05-02T13:51:26.348Z,99870.91
2019-05-02T13:54:02.333Z,99869.50
2019-05-02T13:56:52.823Z,99867.08
2019-05-02T13:59:28.045Z,99859.89
2019-05-02T14:02:02.772Z,99861.49
2019-05-02T14:04:35.751Z,99859.89
2019-05-02T14:07:07.626Z,99859.03
2019-05-02T14:09:57.962Z,99856.32
2019-05-02T14:12:58.419Z,99857.26
2019-05-02T14:15:35.090Z,99843.86
2019-05-02T14:18:06.256Z,99844.09
2019-05-02T14:20:38.450Z,99841.72
2019-05-02T14:23:12.054Z,99850.97
2019-05-02T14:25:43.058Z,99855.58
2019-05-02T14:28:14.127Z,99852.03
2019-05-02T14:30:46.350Z,99851.70
2019-05-02T14:33:23.262Z,99852.03
2019-05-02T14:35:55.480Z,99845.62
2019-05-02T14:38:26.671Z,99854.27
2019-05-02T14:41:12.427Z,99839.11
2019-05-02T14:43:53.091Z,99840.13
2019-05-02T14:46:33.227Z,99848.19
2019-05-02T14:49:02.531Z,99852.20
2019-05-02T14:51:36.456Z,99847.94
2019-05-02T14:54:08.339Z,99844.27
2019-05-02T14:56:52.135Z,99850.64
2019-05-02T14:59:24.846Z,99857.97
2019-05-02T15:02:05.670Z,99854.03
2019-05-02T15:04:38.085Z,99841.52
2019-05-02T15:07:12.939Z,99847.04
2019-05-02T15:09:44.603Z,99836.54
2019-05-02T15:12:18.993Z,99843.25
2019-05-02T15:14:57.366Z,99838.59
2019-05-02T15:17:28.100Z,99832.75
2019-05-02T15:19:59.309Z,99833.20
2019-05-02T15:22:37.338Z,99839.64
2019-05-02T15:25:08.023Z,99832.61
2019-05-02T15:27:42.511Z,99834.68
2019-05-02T15:30:12.881Z,99828.09
2019-05-02T15:32:58.248Z,99836.55
2019-05-02T15:35:42.453Z,99824.06
2019-05-02T15:38:20.863Z,99821.03
2019-05-02T15:40:50.681Z,99822.21
2019-05-02T15:43:22.320Z,99810.69
2019-05-02T15:45:54.869Z,99818.08
2019-05-02T15:48:27.747Z,99813.49
2019-05-02T15:51:00.113Z,99810.64
2019-05-02T15:53:39.146Z,99809.00
2019-05-02T15:56:18.714Z,99817.75
2019-05-02T15:58:44.611Z,99813.61
2019-05-02T16:01:26.757Z,99811.69
2019-05-02T16:04:01.619Z,99810.69
2019-05-02T16:06:34.013Z,99808.20
2019-05-02T16:09:07.593Z,99810.39
2019-05-02T16:11:39.931Z,99813.27
2019-05-02T16:14:12.812Z,99812.54
2019-05-02T16:16:45.406Z,99809.55
2019-05-02T16:19:27.149Z,99810.30
2019-05-02T16:21:59.500Z,99807.41
2019-05-02T16:24:32.098Z,99803.34
2019-05-02T16:27:04.421Z,99800.31
2019-05-02T16:29:35.560Z,99800.88
2019-05-02T16:32:37.851Z,99793.62
2019-05-02T16:35:15.283Z,99790.95
2019-05-02T16:37:46.736Z,99784.92
2019-05-02T16:40:22.134Z,99787.59
2019-05-02T16:42:52.769Z,99781.47
2019-05-02T16:45:25.337Z,99781.09
2019-05-02T16:48:00.142Z,99781.32
2019-05-02T16:50:36.538Z,99785.64
2019-05-02T16:53:07.253Z,99783.38
2019-05-02T16:55:43.437Z,99780.43
2019-05-02T16:58:14.693Z,99781.09
2019-05-02T17:00:47.685Z,99782.89
2019-05-02T17:03:22.711Z,99779.90
2019-05-02T17:05:54.405Z,99779.48
2019-05-02T17:08:39.599Z,99778.80
2019-05-02T17:11:16.110Z,99779.20
2019-05-02T17:13:48.580Z,99782.59
2019-05-02T17:16:22.139Z,99774.33
2019-05-02T17:18:56.515Z,99771.39
2019-05-02T17:21:33.677Z,99776.72
2019-05-02T17:24:02.604Z,99771.30
2019-05-02T17:26:34.569Z,99768.56
2019-05-02T17:29:11.937Z,99768.20
2019-05-02T17:31:44.111Z,99764.14
2019-05-02T17:34:15.762Z,99767.25
2019-05-02T17:36:51.859Z,99768.30
2019-05-02T17:39:25.436Z,99768.00
2019-05-02T17:42:00.243Z,99767.00
2019-05-02T17:44:30.882Z,99759.75
2019-05-02T17:47:04.238Z,99761.23
2019-05-02T17:49:43.411Z,99762.40
2019-05-02T17:52:26.838Z,99763.77
2019-05-02T17:54:57.490Z,99768.30
2019-05-02T17:57:33.467Z,99771.39
2019-05-02T18:00:12.224Z,99774.89
2019-05-02T18:02:47.047Z,99776.48
2019-05-02T18:05:18.608Z,99773.06
2019-05-02T18:07:52.652Z,99768.80
2019-05-02T18:10:25.576Z,99772.34
2019-05-02T18:13:02.521Z,99775.25
2019-05-02T18:15:42.634Z,99775.53
2019-05-02T18:18:16.401Z,99761.20
2019-05-02T18:20:47.979Z,99769.62
2019-05-02T18:23:27.721Z,99772.12
2019-05-02T18:26:02.778Z,99775.37
2019-05-02T18:28:45.544Z,99775.77
2019-05-02T18:31:06.971Z,99777.43
2019-05-02T18:33:41.009Z,99784.31
2019-05-02T18:36:17.361Z,99787.28
2019-05-02T18:38:52.445Z,99784.91
2019-05-02T18:41:22.402Z,99789.14
2019-05-02T18:43:55.246Z,99784.30
2019-05-02T18:46:28.605Z,99785.47
2019-05-02T18:49:02.762Z,99788.95
2019-05-02T18:51:36.873Z,99805.08
2019-05-02T18:54:12.008Z,99820.69
2019-05-02T18:56:50.101Z,99826.37
2019-05-02T18:59:19.806Z,99836.03
2019-05-02T19:01:52.680Z,99831.98
2019-05-02T19:04:29.831Z,99835.75
2019-05-02T19:07:00.531Z,99841.43
2019-05-02T19:09:34.806Z,99841.60
2019-05-02T19:12:21.419Z,99836.09
2019-05-02T19:14:49.268Z,99837.77
2019-05-02T19:17:25.310Z,99835.50
2019-05-02T19:20:01.402Z,99837.01
2019-05-02T19:22:47.944Z,99830.99
2019-05-02T19:25:12.086Z,99836.57
2019-05-02T19:27:59.425Z,99833.53
2019-05-02T19:30:36.096Z,99833.70
2019-05-02T19:33:12.117Z,99829.41
2019-05-02T19:35:50.086Z,99834.19
2019-05-02T19:38:26.395Z,99836.23
2019-05-02T19:41:05.499Z,99833.52
2019-05-02T19:43:40.266Z,99835.80
2019-05-02T19:46:12.863Z,99836.17
2019-05-02T19:48:47.136Z,99846.16
2019-05-02T19:51:22.584Z,99842.47
2019-05-02T19:54:05.473Z,99847.69
2019-05-02T19:56:45.438Z,99851.98
2019-05-02T19:59:16.739Z,99853.36
2019-05-02T20:01:52.299Z,99854.75
2019-05-02T20:04:29.582Z,99858.27
2019-05-02T20:07:04.434Z,99856.07
2019-05-02T20:09:43.584Z,99850.19
2019-05-02T20:12:18.175Z,99857.00
2019-05-02T20:14:52.660Z,99858.06
2019-05-02T20:17:27.932Z,99866.61
2019-05-02T20:20:07.093Z,99869.96
2019-05-02T20:22:41.710Z,99872.66
2019-05-02T20:25:18.008Z,99871.53
2019-05-02T20:27:53.831Z,99870.52
2019-05-02T20:30:32.716Z,99882.00
2019-05-02T20:33:07.120Z,99884.42
2019-05-02T20:35:43.289Z,99892.95
2019-05-02T20:38:21.733Z,99890.55
2019-05-02T20:41:00.431Z,99889.91
2019-05-02T20:43:35.920Z,99893.34
2019-05-02T20:46:12.143Z,99897.02
2019-05-02T20:48:48.509Z,99909.51
2019-05-02T20:51:22.864Z,99906.92
2019-05-02T20:53:56.963Z,99908.27
2019-05-02T20:56:32.091Z,99915.13
2019-05-02T20:59:07.716Z,99917.86
2019-05-02T21:01:43.058Z,99922.75
2019-05-02T21:04:17.090Z,99917.08
2019-05-02T21:07:09.718Z,99920.52
2019-05-02T21:10:03.857Z,99928.94
2019-05-02T21:12:38.189Z,99920.44
2019-05-02T21:15:18.216Z,99931.59
2019-05-02T21:17:52.155Z,99933.58
2019-05-02T21:20:26.283Z,99935.69
2019-05-02T21:23:01.975Z,99936.16
2019-05-02T21:25:36.014Z,99934.75
2019-05-02T21:28:12.001Z,99937.98
2019-05-02T21:30:49.332Z,99928.56
2019-05-02T21:33:36.326Z,99929.39
2019-05-02T21:36:12.040Z,99932.32
2019-05-02T21:38:46.298Z,99936.19
2019-05-02T21:41:22.240Z,99939.03
2019-05-02T21:43:58.590Z,99937.34
2019-05-02T21:46:32.403Z,99938.82
2019-05-02T21:49:08.975Z,99939.20
2019-05-02T21:51:51.794Z,99937.08
2019-05-02T21:54:33.724Z,99940.27
2019-05-02T21:57:12.490Z,99939.87
2019-05-02T21:59:46.691Z,99940.05
2019-05-02T22:02:22.460Z,99943.02
2019-05-02T22:04:58.193Z,99954.10
2019-05-02T22:07:32.378Z,99955.71
2019-05-02T22:10:08.481Z,99953.75
2019-05-02T22:12:42.326Z,99958.36
2019-05-02T22:15:18.366Z,99955.92
2019-05-02T22:17:52.312Z,99956.30
2019-05-02T22:20:28.030Z,99952.20
2019-05-02T22:23:02.404Z,99944.22
2019-05-02T22:25:36.157Z,99945.31
2019-05-02T22:28:12.578Z,99954.56
2019-05-02T22:30:47.765Z,99955.55
2019-05-02T22:33:22.181Z,99953.97
2019-05-02T22:35:56.668Z,99953.28
2019-05-02T22:39:05.426Z,99955.41
2019-05-02T22:41:39.346Z,99962.37
2019-05-02T22:44:14.192Z,99958.59
2019-05-02T22:46:47.757Z,99961.25
2019-05-02T22:49:23.638Z,99963.83
2019-05-02T22:51:57.318Z,99964.06
2019-05-02T22:54:34.078Z,99955.69
2019-05-02T22:57:08.929Z,99958.88
2019-05-02T22:59:42.547Z,99968.91
2019-05-02T23:02:17.995Z,99971.58
2019-05-02T23:04:52.692Z,99973.35
2019-05-02T23:07:27.845Z,99976.22
2019-05-02T23:10:02.168Z,99971.58
2019-05-02T23:12:37.239Z,99981.29
2019-05-02T23:15:12.561Z,99978.95
2019-05-02T23:17:54.060Z,99976.58
2019-05-02T23:20:27.733Z,99982.14
2019-05-02T23:23:01.908Z,99976.51
2019-05-02T23:26:05.798Z,99983.88
2019-05-02T23:28:42.308Z,99982.75
2019-05-02T23:31:16.325Z,99986.55
2019-05-02T23:33:59.128Z,99984.05
2019-05-02T23:36:33.781Z,99980.17
2019-05-02T23:39:12.470Z,99983.66
2019-05-02T23:41:48.061Z,99985.78
2019-05-02T23:44:22.840Z,99987.48
2019-05-02T23:46:56.771Z,99988.14
2019-05-02T23:49:32.352Z,99983.88
2019-05-02T23:52:07.254Z,99983.28
2019-05-02T23:54:49.998Z,99988.70
2019-05-02T23:57:19.067Z,99984.73
2019-05-02T23:59:52.871Z,99985.73
